TimeCDT,TemperatureF,Dew PointF,Humidity,Sea Level PressureIn,VisibilityMPH,Wind Direction,Wind SpeedMPH,Gust SpeedMPH,PrecipitationIn,Events,Conditions,WindDirDegrees,DateUTC
12:15 AM,39.7,37.4,91,29.99,7.0,NE,8.1,-,N/A,,Clear,40,2012-11-02 05:15:00
12:35 AM,40.3,35.8,84,29.99,10.0,NE,9.2,-,N/A,,Clear,50,2012-11-02 05:35:00
12:55 AM,40.8,34.5,78,29.99,10.0,ENE,6.9,-,N/A,,Clear,70,2012-11-02 05:55:00
1:15 AM,40.1,33.3,77,30.00,10.0,NE,8.1,-,N/A,,Clear,50,2012-11-02 06:15:00
1:35 AM,39.4,32.7,77,30.00,10.0,ENE,8.1,-,N/A,,Clear,70,2012-11-02 06:35:00
1:55 AM,39.9,32.2,74,29.99,10.0,ENE,8.1,-,N/A,,Clear,70,2012-11-02 06:55:00
2:15 AM,39.4,32.2,75,29.99,10.0,ENE,8.1,-,N/A,,Clear,60,2012-11-02 07:15:00
2:35 AM,39.4,32.0,75,29.99,10.0,ENE,8.1,-,N/A,,Clear,70,2012-11-02 07:35:00
2:55 AM,38.8,32.0,76,29.99,10.0,ENE,6.9,-,N/A,,Clear,70,2012-11-02 07:55:00
3:15 AM,38.8,32.0,76,29.99,10.0,ENE,8.1,-,N/A,,Clear,70,2012-11-02 08:15:00
3:35 AM,38.8,32.0,76,29.97,10.0,East,9.2,-,N/A,,Clear,90,2012-11-02 08:35:00
3:55 AM,39.0,31.3,74,29.97,10.0,East,10.4,-,N/A,,Clear,90,2012-11-02 08:55:00
4:15 AM,39.2,30.9,72,29.97,10.0,East,8.1,-,N/A,,Clear,100,2012-11-02 09:15:00
4:35 AM,38.7,30.9,74,29.97,10.0,East,10.4,-,N/A,,Clear,100,2012-11-02 09:35:00
4:55 AM,38.8,30.7,73,29.97,10.0,East,10.4,-,N/A,,Clear,100,2012-11-02 09:55:00
5:15 AM,38.8,30.9,73,29.97,10.0,ESE,9.2,-,N/A,,Clear,110,2012-11-02 10:15:00
5:35 AM,38.5,31.1,75,29.97,10.0,East,9.2,-,N/A,,Clear,100,2012-11-02 10:35:00
5:55 AM,38.8,30.9,73,29.97,10.0,ESE,10.4,-,N/A,,Clear,110,2012-11-02 10:55:00
6:15 AM,38.8,31.1,74,29.98,10.0,ESE,10.4,-,N/A,,Clear,110,2012-11-02 11:15:00
6:35 AM,38.5,31.3,75,29.98,10.0,ESE,8.1,-,N/A,,Clear,110,2012-11-02 11:35:00
6:55 AM,37.9,31.1,76,29.97,10.0,East,9.2,-,N/A,,Clear,100,2012-11-02 11:55:00
7:15 AM,38.1,31.5,77,29.97,10.0,ESE,9.2,-,N/A,,Clear,110,2012-11-02 12:15:00
8:55 AM,37.8,31.3,77,29.97,10.0,ESE,13.8,-,N/A,,Clear,110,2012-11-02 13:55:00
9:15 AM,38.8,31.6,75,29.97,10.0,ESE,12.7,-,N/A,,Clear,110,2012-11-02 14:15:00
9:35 AM,40.1,31.1,70,29.97,10.0,ESE,11.5,-,N/A,,Clear,120,2012-11-02 14:35:00
9:55 AM,40.8,31.1,68,29.98,10.0,ESE,10.4,-,N/A,,Clear,120,2012-11-02 14:55:00
10:15 AM,42.8,31.8,65,29.98,10.0,SE,11.5,-,N/A,,Clear,130,2012-11-02 15:15:00
10:35 AM,43.5,31.5,63,29.99,10.0,ESE,12.7,18.4,N/A,,Clear,120,2012-11-02 15:35:00
10:55 AM,45.0,32.0,60,29.99,10.0,ESE,10.4,18.4,N/A,,Clear,120,2012-11-02 15:55:00
11:15 AM,46.6,32.0,57,29.98,10.0,SE,11.5,17.3,N/A,,Clear,130,2012-11-02 16:15:00
11:35 AM,48.4,32.2,54,29.99,10.0,ESE,10.4,-,N/A,,Clear,120,2012-11-02 16:35:00
11:55 AM,49.6,32.0,51,29.98,10.0,East,12.7,18.4,N/A,,Clear,100,2012-11-02 16:55:00
12:15 PM,49.6,31.8,50,29.97,10.0,East,10.4,17.3,N/A,,Clear,100,2012-11-02 17:15:00
12:35 PM,50.5,31.3,48,29.97,10.0,ESE,11.5,16.1,N/A,,Clear,110,2012-11-02 17:35:00
12:55 PM,50.4,30.2,46,29.97,10.0,ESE,8.1,-,N/A,,Clear,110,2012-11-02 17:55:00
1:15 PM,51.4,29.5,43,29.96,10.0,East,10.4,-,N/A,,Clear,90,2012-11-02 18:15:00
1:35 PM,52.7,29.3,41,29.95,10.0,East,13.8,17.3,N/A,,Clear,80,2012-11-02 18:35:00
1:55 PM,52.9,28.8,40,29.94,10.0,East,11.5,-,N/A,,Clear,100,2012-11-02 18:55:00
2:15 PM,53.6,28.8,39,29.92,10.0,East,12.7,17.3,N/A,,Clear,80,2012-11-02 19:15:00
2:35 PM,54.0,28.9,38,29.92,10.0,East,11.5,-,N/A,,Clear,90,2012-11-02 19:35:00
2:55 PM,54.5,29.1,38,29.92,10.0,East,10.4,-,N/A,,Clear,80,2012-11-02 19:55:00
3:15 PM,55.6,28.6,36,29.92,10.0,ENE,8.1,-,N/A,,Clear,70,2012-11-02 20:15:00
3:35 PM,54.9,27.9,35,29.93,10.0,East,9.2,-,N/A,,Clear,80,2012-11-02 20:35:00
3:55 PM,54.5,27.7,36,29.93,10.0,ENE,9.2,-,N/A,,Clear,70,2012-11-02 20:55:00
4:15 PM,54.7,27.7,35,29.93,10.0,ENE,6.9,-,N/A,,Clear,60,2012-11-02 21:15:00
4:35 PM,54.7,27.9,36,29.94,10.0,NE,9.2,-,N/A,,Clear,50,2012-11-02 21:35:00
4:55 PM,54.1,27.0,35,29.94,10.0,ENE,5.8,-,N/A,,Clear,70,2012-11-02 21:55:00
5:15 PM,53.2,30.2,41,29.95,10.0,NNE,6.9,-,N/A,,Clear,30,2012-11-02 22:15:00
5:35 PM,52.7,30.7,43,29.96,10.0,North,5.8,-,N/A,,Clear,10,2012-11-02 22:35:00
5:55 PM,51.3,31.8,47,29.97,10.0,North,4.6,-,N/A,,Clear,10,2012-11-02 22:55:00
6:15 PM,49.8,32.0,50,29.98,10.0,North,5.8,-,N/A,,Clear,10,2012-11-02 23:15:00
6:35 PM,48.2,31.6,53,29.98,10.0,NNE,6.9,-,N/A,,Clear,20,2012-11-02 23:35:00
6:55 PM,46.9,32.0,56,29.99,10.0,NNE,6.9,-,N/A,,Clear,20,2012-11-02 23:55:00
7:15 PM,46.4,31.8,57,30.00,10.0,NNE,5.8,-,N/A,,Clear,20,2012-11-03 00:15:00
7:35 PM,45.5,31.8,59,30.01,10.0,NNE,4.6,-,N/A,,Clear,20,2012-11-03 00:35:00
7:55 PM,44.8,31.8,60,30.01,10.0,NNE,5.8,-,N/A,,Clear,20,2012-11-03 00:55:00
8:15 PM,44.1,32.0,63,30.02,10.0,North,6.9,-,N/A,,Clear,10,2012-11-03 01:15:00
8:35 PM,43.7,32.0,63,30.02,10.0,NE,6.9,-,N/A,,Clear,40,2012-11-03 01:35:00
8:55 PM,43.0,32.2,66,30.03,10.0,North,5.8,-,N/A,,Clear,360,2012-11-03 01:55:00
9:15 PM,42.3,32.0,67,30.04,10.0,North,8.1,-,N/A,,Clear,10,2012-11-03 02:15:00
9:35 PM,42.3,32.0,67,30.04,10.0,NNE,6.9,-,N/A,,Clear,20,2012-11-03 02:35:00
9:55 PM,41.5,32.0,69,30.04,10.0,North,8.1,-,N/A,,Clear,10,2012-11-03 02:55:00
10:15 PM,40.6,32.0,71,30.05,10.0,North,6.9,-,N/A,,Clear,10,2012-11-03 03:15:00
10:35 PM,40.1,32.0,73,30.05,10.0,NNE,6.9,-,N/A,,Clear,20,2012-11-03 03:35:00
10:55 PM,40.1,31.8,72,30.06,10.0,NNE,5.8,-,N/A,,Clear,20,2012-11-03 03:55:00
11:15 PM,40.1,31.6,72,30.06,10.0,North,3.5,-,N/A,,Clear,350,2012-11-03 04:15:00
11:35 PM,38.7,31.1,74,30.07,10.0,North,3.5,-,N/A,,Clear,350,2012-11-03 04:35:00
11:55 PM,37.6,31.1,77,30.07,10.0,NNW,4.6,-,N/A,,Clear,340,2012-11-03 04:55:00